Statenville, Georgia
Current Conditions -  °F | °C
As of 7:53 AM on Wednesday 22 Oct 2014 (Local Time) from KVLD Reporting Station
Clear Clear  
Wind Chill: 53°   Ceiling: Unl
Heat Index: 53°   Visibility: 10mi
Dew Point: 47°   Wind: 6mph
Humidity: 80%   Direction: 360°N
Pressure: 30.02"   Gusts: NA
Location:  30.7°N, 83.03°W
Report Text: KVLD 221153Z 36005KT 10SM CLR 12/08 A3002 RMK AO2 SLP173 T01170083 10122 20106 51012
Loading
Personal Weather Stations






























Interactive Weather Map
Tropical Storm Tracking
New forecast layout! Learn more

10-Day Weather Forecast

Advertisements
Track Severe Weather on mobile